Data for 09/09/2018

Time Sea-Level Adjusted Pressure Absolute Pressure Temperature Relative Humidity Dew Point   
(mb) (inHg) (mb) (inHg) (C) (F) (%) (C) (F)
00:05 1018 30.06 847 25.01 15.8 60.5 35 0.5 33
00:10 1018 30.06 847 25.01 15.9 60.5 35 0.5 32.9
00:15 1018 30.06 847 25.01 15.8 60.4 35 0.6 33
00:20 1018 30.06 847 25.01 15.7 60.3 35 0.5 32.9
00:25 1018 30.06 847 25.01 15.6 60.1 36 0.6 33
00:30 1018 30.06 847 25.01 15.5 59.9 35 0.4 32.7
00:35 1018 30.06 847 25.01 15.5 59.8 36 0.7 33.2
00:40 1018 30.06 847 25.01 15.4 59.8 36 0.7 33.2
00:45 1018 30.06 848 25.04 15.2 59.4 37 0.8 33.4
00:50 1018 30.06 848 25.04 15.1 59.1 38 0.8 33.5
00:55 1018 30.06 848 25.04 14.9 58.9 38 0.9 33.6
01:00 1018 30.06 848 25.04 14.8 58.7 39 0.9 33.7
01:05 1018 30.06 848 25.04 14.8 58.6 38 0.8 33.5
01:10 1019 30.09 848 25.04 14.8 58.7 38 0.8 33.4
01:15 1018 30.06 848 25.04 14.9 58.8 38 0.7 33.3
01:20 1018 30.06 848 25.04 14.9 58.7 38 0.9 33.5
01:25 1018 30.06 848 25.04 14.8 58.7 38 0.9 33.5
01:30 1019 30.09 848 25.04 14.8 58.6 39 1 33.8
01:35 1019 30.09 848 25.04 14.6 58.3 40 1.1 34
01:40 1019 30.09 848 25.04 14.4 57.9 40 1.1 34
01:45 1019 30.09 848 25.04 14.3 57.8 40 0.9 33.5
01:50 1019 30.09 848 25.04 14.4 58 39 0.8 33.5
01:55 1018 30.06 848 25.04 14.5 58.1 40 1 33.9
02:00 1018 30.06 848 25.04 14.5 58 40 1 33.8
02:05 1018 30.06 848 25.04 14.4 57.9 40 0.9 33.6
02:10 1018 30.06 848 25.04 14.5 58.1 39 0.8 33.5
02:15 1019 30.09 848 25.04 14.6 58.3 38 0.7 33.2
02:20 1019 30.09 848 25.04 14.6 58.4 39 0.8 33.5
02:25 1019 30.09 848 25.04 14.6 58.3 39 0.8 33.4
02:30 1019 30.09 848 25.04 14.6 58.3 39 0.8 33.5
02:35 1019 30.09 848 25.04 14.6 58.2 39 0.9 33.7
02:40 1019 30.09 848 25.04 14.4 58 41 1.3 34.4
02:45 1019 30.09 848 25.04 14.1 57.4 43 1.7 35
02:50 1019 30.09 848 25.04 13.8 56.9 43 1.5 34.8
02:55 1019 30.09 848 25.04 13.6 56.6 43 1.5 34.6
03:00 1019 30.09 848 25.04 13.6 56.4 44 1.6 34.9
03:05 1019 30.09 848 25.04 13.5 56.3 44 1.4 34.5
03:10 1019 30.09 848 25.04 13.3 55.9 47 2.4 36.3
03:15 1019 30.09 848 25.04 12.5 54.4 50 2.3 36.2
03:20 1019 30.09 848 25.04 12.2 53.9 49 1.9 35.4
03:25 1019 30.09 848 25.04 12.2 53.9 50 2.1 35.8
03:30 1019 30.09 848 25.04 12 53.7 51 2.1 35.8
03:35 1019 30.09 848 25.04 11.9 53.4 51 2.1 35.8
03:40 1019 30.09 848 25.04 11.9 53.4 50 1.9 35.4
03:45 1019 30.09 848 25.04 11.8 53.3 51 2 35.6
03:50 1019 30.09 848 25.04 11.8 53.2 50 1.9 35.4
03:55 1019 30.09 848 25.04 11.8 53.2 51 1.9 35.4
04:00 1019 30.09 848 25.04 11.7 53.1 50 1.7 35
04:05 1019 30.09 848 25.04 11.9 53.4 49 1.6 34.8
04:10 1019 30.09 848 25.04 12 53.6 48 1.4 34.4
04:15 1019 30.09 848 25.04 12.2 53.9 48 1.6 34.8
04:20 1019 30.09 848 25.04 12.2 53.9 47 1.3 34.4
04:25 1019 30.09 848 25.04 12.2 54 48 1.6 34.9
04:30 1019 30.09 848 25.04 12.2 54 47 1.4 34.6
04:35 1019 30.09 848 25.04 12.3 54.2 47 1.3 34.3
04:40 1019 30.09 848 25.04 12.4 54.3 47 1.5 34.7
04:45 1019 30.09 848 25.04 12.3 54.1 48 1.7 35
04:50 1019 30.09 848 25.04 12 53.6 49 1.8 35.3
04:55 1019 30.09 848 25.04 11.7 53.1 51 1.9 35.4
05:00 1019 30.09 848 25.04 11.6 52.8 51 2 35.5
05:05 1019 30.09 848 25.04 11.4 52.5 52 2 35.5
05:10 1019 30.09 848 25.04 11.3 52.4 53 2.1 35.7
05:15 1019 30.09 848 25.04 11.3 52.3 52 1.9 35.4
05:20 1019 30.09 848 25.04 11.3 52.4 52 2 35.6
05:25 1019 30.09 849 25.07 11.3 52.3 53 2 35.6
05:30 1019 30.09 849 25.07 11.3 52.4 52 1.9 35.4
05:35 1019 30.09 849 25.07 11.3 52.3 53 2 35.6
05:40 1019 30.09 849 25.07 11.1 52 53 2 35.6
05:45 1019 30.09 849 25.07 10.9 51.7 55 2.2 36
05:50 1019 30.09 849 25.07 10.7 51.3 55 2.1 35.8
05:55 1019 30.09 849 25.07 10.6 51 56 2.2 36
06:00 1019 30.09 849 25.07 10.4 50.7 57 2.3 36.1
06:05 1020 30.12 849 25.07 10.3 50.5 55 1.6 35
06:10 1020 30.12 849 25.07 10.5 50.8 55 1.9 35.5
06:15 1020 30.12 849 25.07 10.5 50.9 55 1.8 35.3
06:20 1020 30.12 849 25.07 10.6 51.1 53 1.5 34.8
06:25 1020 30.12 849 25.07 10.7 51.3 53 1.6 34.9
06:30 1020 30.12 849 25.07 10.6 51.1 54 1.8 35.3
06:35 1020 30.12 849 25.07 10.3 50.6 56 1.9 35.4
06:40 1020 30.12 849 25.07 10.3 50.5 56 1.9 35.5
06:45 1020 30.12 849 25.07 10.4 50.7 56 2 35.6
06:50 1020 30.12 849 25.07 10.6 51 54 1.8 35.3
06:55 1020 30.12 849 25.07 10.8 51.5 54 2 35.6
07:00 1020 30.12 849 25.07 11 51.8 54 2.2 35.9
07:05 1020 30.12 849 25.07 11.3 52.3 54 2.3 36.2
07:10 1020 30.12 849 25.07 11.4 52.5 54 2.4 36.4
07:15 1020 30.12 849 25.07 11.5 52.7 54 2.5 36.5
07:20 1020 30.12 849 25.07 12 53.5 52 2.6 36.7
07:25 1020 30.12 849 25.07 12.5 54.4 50 2.4 36.2
07:30 1020 30.12 849 25.07 12.9 55.2 48 2.2 36
07:35 1020 30.12 849 25.07 13.3 55.9 46 2 35.7
07:40 1020 30.12 850 25.1 13.6 56.4 45 2 35.6
07:45 1020 30.12 850 25.1 14.4 57.8 43 2 35.6
07:50 1020 30.12 850 25.1 14.9 58.8 42 2.3 36.2
07:55 1020 30.12 850 25.1 15.1 59.1 42 2.3 36.1
08:00 1020 30.12 850 25.1 14.7 58.5 44 2.6 36.7
08:05 1020 30.12 850 25.1 14.4 58 44 2.5 36.5
08:10 1020 30.12 850 25.1 14.7 58.5 43 2.4 36.3
08:15 1020 30.12 850 25.1 15.7 60.3 40 2.4 36.3
08:20 1021 30.15 850 25.1 16.2 61.2 40 2.6 36.8
08:25 1021 30.15 850 25.1 16.8 62.2 40 3 37.5
08:30 1020 30.12 850 25.1 16.7 62.1 36 1.6 34.9
08:35 1020 30.12 850 25.1 16.9 62.5 34 1 33.8
08:40 1020 30.12 850 25.1 17.4 63.4 34 1.3 34.4
08:45 1021 30.15 850 25.1 17.2 63 33 0.9 33.6
08:50 1021 30.15 850 25.1 17.4 63.3 33 1.2 34.2
08:55 1021 30.15 850 25.1 17.2 63 33 1.1 33.9
09:00 1021 30.15 850 25.1 17.3 63.1 34 1.4 34.5
09:05 1021 30.15 850 25.1 17.5 63.5 34 1.4 34.6
09:10 1021 30.15 850 25.1 18.1 64.5 32 1.3 34.3
09:15 1021 30.15 850 25.1 18.7 65.6 31 1.6 34.8
09:20 1021 30.15 850 25.1 18.9 66 31 1.3 34.4
09:25 1021 30.15 850 25.1 18.6 65.4 32 1.7 35.1
09:30 1020 30.12 850 25.1 18.5 65.3 31 1.2 34.2
09:35 1020 30.12 850 25.1 18.9 65.9 30 1.3 34.3
09:40 1020 30.12 850 25.1 18.7 65.6 30 1 33.8
09:45 1020 30.12 849 25.07 18.9 65.9 29 0.5 32.8
09:50 1020 30.12 849 25.07 19.4 67 29 1.1 34
09:55 1020 30.12 849 25.07 19.7 67.4 29 1.3 34.3
10:00 1020 30.12 849 25.07 19.8 67.6 28 0.8 33.4
10:05 1020 30.12 849 25.07 19.9 67.7 28 0.9 33.6
10:10 1020 30.12 849 25.07 19.6 67.3 29 1.1 34
10:15 1020 30.12 849 25.07 19.4 66.9 29 1.2 34.1
10:20 1020 30.12 849 25.07 19.6 67.3 28 0.7 33.3
10:25 1020 30.12 849 25.07 19.9 67.9 27 0.5 33
10:30 1020 30.12 849 25.07 19.9 67.9 28 0.8 33.5
10:35 1020 30.12 849 25.07 20.1 68.2 28 1.5 34.6
10:40 1020 30.12 849 25.07 20.2 68.4 29 1.8 35.2
10:45 1020 30.12 849 25.07 19.7 67.4 29 1.2 34.2
10:50 1020 30.12 849 25.07 20.1 68.2 29 1.5 34.6
10:55 1020 30.12 849 25.07 20 68 27 0.5 32.9
11:00 1020 30.12 849 25.07 21 69.8 26 0.8 33.4
11:05 1020 30.12 849 25.07 21.2 70.1 28 1.9 35.5
11:10 1020 30.12 849 25.07 21.6 70.9 25 0.7 33.3
11:15 1020 30.12 849 25.07 22.3 72.2 24 0.7 33.3
11:20 1020 30.12 849 25.07 21.8 71.2 25 0.8 33.5
11:25 1020 30.12 849 25.07 22 71.7 26 1.9 35.4
11:30 1020 30.12 849 25.07 21.6 70.9 26 1.6 34.9
11:35 1019 30.09 849 25.07 21.8 71.3 24 0.5 33
11:40 1019 30.09 849 25.07 22.3 72.2 24 0.9 33.7
11:45 1019 30.09 849 25.07 22.8 73.1 25 1.7 35.1
11:50 1019 30.09 849 25.07 23.2 73.8 23 1.3 34.4
11:55 1019 30.09 848 25.04 22 71.7 27 2.5 36.5
12:00 1019 30.09 848 25.04 21.9 71.3 25 1 33.8
12:05 1019 30.09 848 25.04 22.5 72.4 22 -0 32
12:10 1019 30.09 848 25.04 22.3 72.1 23 0.3 32.6
12:15 1019 30.09 848 25.04 21.7 71.1 23 -0.3 31.4
12:20 1019 30.09 848 25.04 21.5 70.7 22 -0.8 30.5
12:25 1019 30.09 848 25.04 21.3 70.3 22 -1.2 29.8
12:30 1019 30.09 848 25.04 21.9 71.5 19 -2.5 27.5
12:35 1019 30.09 848 25.04 22.6 72.6 20 -1.2 29.9
12:40 1019 30.09 848 25.04 22.6 72.7 20 -1.5 29.4
12:45 1019 30.09 848 25.04 21.9 71.4 21 -1.5 29.3
12:50 1019 30.09 848 25.04 21.6 70.8 19 -2.8 27
12:55 1019 30.09 848 25.04 22 71.6 19 -2.5 27.5
13:00 1019 30.09 848 25.04 22.4 72.2 19 -2.4 27.6
13:05 1018 30.06 848 25.04 22.4 72.2 19 -2.5 27.5
13:10 1018 30.06 848 25.04 23.2 73.8 18 -2.5 27.5
13:15 1018 30.06 848 25.04 23.7 74.6 19 -1.4 29.4
13:20 1018 30.06 848 25.04 24.1 75.4 18 -1.5 29.2
13:25 1018 30.06 847 25.01 23 73.4 18 -2.1 28.2
13:30 1018 30.06 847 25.01 23.6 74.5 18 -2.2 28.1
13:35 1018 30.06 847 25.01 24.2 75.6 18 -1.4 29.4
13:40 1018 30.06 847 25.01 24.7 76.4 17 -1.6 29.2
13:45 1018 30.06 847 25.01 25.2 77.3 17 -1.7 29
13:50 1018 30.06 847 25.01 25.1 77.1 17 -1.4 29.5
13:55 1018 30.06 847 25.01 25.1 77.2 17 -1.5 29.3
14:00 1018 30.06 847 25.01 25.2 77.3 17 -1.1 30
14:05 1018 30.06 847 25.01 24.9 76.7 18 -1.1 30
14:10 1018 30.06 847 25.01 24.1 75.3 19 -0.8 30.6
14:15 1018 30.06 847 25.01 24 75.1 19 -1.1 29.9
14:20 1018 30.06 847 25.01 24.2 75.5 19 -0.4 31.3
14:25 1018 30.06 847 25.01 24.2 75.6 18 -1 30.2
14:30 1018 30.06 847 25.01 24.7 76.4 20 0.2 32.4
14:35 1017 30.03 847 25.01 24.5 76.1 17 -2.1 28.2
14:40 1017 30.03 847 25.01 24 75.2 18 -1.7 29
14:45 1017 30.03 847 25.01 24.4 75.9 19 -0.7 30.7
14:50 1017 30.03 846 24.98 24.1 75.4 18 -1.2 29.8
14:55 1017 30.03 846 24.98 23.8 74.9 19 -1 30.3
15:00 1017 30.03 846 24.98 24.3 75.7 19 -0.3 31.5
15:05 1017 30.03 846 24.98 24.2 75.5 18 -1.2 29.8
15:10 1017 30.03 846 24.98 24.1 75.4 18 -1.4 29.4
15:15 1017 30.03 846 24.98 25 77 17 -1.6 29.2
15:20 1017 30.03 846 24.98 25 77 18 -0.7 30.8
15:25 1017 30.03 846 24.98 24.7 76.4 17 -1.6 29
15:30 1017 30.03 846 24.98 24.4 75.9 19 -0.4 31.2
15:35 1017 30.03 846 24.98 24.2 75.5 19 -0.5 31.1
15:40 1017 30.03 846 24.98 24.8 76.7 18 -1.1 30
15:45 1017 30.03 846 24.98 25.4 77.7 18 -0.6 30.9
15:50 1017 30.03 846 24.98 25.3 77.5 17 -0.9 30.4
15:55 1017 30.03 846 24.98 23.9 75 19 -1.2 29.8
16:00 1017 30.03 846 24.98 23.9 75.1 19 -1.1 29.9
16:05 1017 30.03 846 24.98 24.2 75.6 18 -1.5 29.3
16:10 1017 30.03 846 24.98 23.9 75.1 18 -1.4 29.5
16:15 1017 30.03 846 24.98 24.4 75.9 17 -1.7 28.9
16:20 1017 30.03 846 24.98 24.2 75.5 18 -1.6 29.1
16:25 1017 30.03 846 24.98 24.1 75.5 18 -1.3 29.7
16:30 1017 30.03 846 24.98 24.7 76.5 17 -1.6 29.1
16:35 1017 30.03 846 24.98 24 75.2 19 -1.2 29.9
16:40 1017 30.03 846 24.98 24 75.2 18 -1.7 28.9
16:45 1017 30.03 846 24.98 24.5 76 18 -1.4 29.5
16:50 1017 30.03 846 24.98 24.1 75.4 17 -2.3 27.9
16:55 1017 30.03 846 24.98 24 75.2 19 -1.1 30.1
17:00 1017 30.03 846 24.98 23.9 75 19 -1.2 29.8
17:05 1017 30.03 846 24.98 24.2 75.6 17 -1.9 28.7
17:10 1017 30.03 846 24.98 24.5 76.2 17 -2 28.4
17:15 1017 30.03 846 24.98 24.2 75.6 18 -1.6 29.1
17:20 1017 30.03 846 24.98 23.8 74.8 19 -0.8 30.6
17:25 1017 30.03 846 24.98 23.4 74.1 19 -1.1 30.1
17:30 1017 30.03 846 24.98 23.1 73.5 19 -1.4 29.5
17:35 1017 30.03 846 24.98 23 73.5 19 -1.3 29.6
17:40 1017 30.03 846 24.98 22.9 73.1 20 -1.2 29.9
17:45 1017 30.03 846 24.98 23 73.3 20 -1 30.2
17:50 1017 30.03 846 24.98 22.9 73.3 20 -1 30.1
17:55 1017 30.03 846 24.98 22.9 73.1 19 -1.5 29.3
18:00 1017 30.03 846 24.98 22.8 73 19 -1.9 28.6
18:05 1017 30.03 846 24.98 22.8 73 21 -0.8 30.5
18:10 1017 30.03 846 24.98 22.7 72.9 19 -2 28.4
18:15 1017 30.03 846 24.98 22.7 72.9 22 0.2 32.3
18:20 1017 30.03 846 24.98 22.6 72.8 22 -0.2 31.7
18:25 1017 30.03 846 24.98 22.5 72.6 24 1 33.8
18:30 1017 30.03 846 24.98 22.4 72.3 23 0.3 32.5
18:35 1017 30.03 846 24.98 22.4 72.4 24 1.1 33.9
18:40 1017 30.03 846 24.98 21.7 71.1 27 2.1 35.7
18:45 1017 30.03 846 24.98 20.8 69.4 30 2.9 37.3
18:50 1017 30.03 846 24.98 20.3 68.6 32 3.1 37.6
18:55 1017 30.03 846 24.98 19.9 67.8 34 3.8 38.9
19:00 1017 30.03 846 24.98 19.2 66.5 35 3.4 38.2
19:05 1017 30.03 846 24.98 18.5 65.3 36 3.5 38.3
19:10 1017 30.03 846 24.98 18.2 64.7 34 2.1 35.7
19:15 1017 30.03 846 24.98 17.9 64.2 36 2.9 37.3
19:20 1017 30.03 846 24.98 17.5 63.4 38 3.1 37.6
19:25 1017 30.03 846 24.98 16.7 62.1 43 4.1 39.4
19:30 1017 30.03 846 24.98 16.2 61.1 43 3.6 38.4
19:35 1017 30.03 846 24.98 16 60.8 42 3.3 38
19:40 1017 30.03 846 24.98 15.8 60.4 39 2 35.6
19:45 1017 30.03 847 25.01 15.8 60.4 37 1.2 34.2
19:50 1017 30.03 847 25.01 16.1 60.9 32 -0.6 31
19:55 1017 30.03 847 25.01 16.6 61.8 35 1.2 34.2
20:00 1017 30.03 847 25.01 16.2 61.2 35 0.9 33.7
20:05 1017 30.03 847 25.01 16.1 60.9 34 0.2 32.4
20:10 1017 30.03 847 25.01 16.1 60.9 34 0.2 32.4
20:15 1017 30.03 847 25.01 15.8 60.5 34 0.1 32.1
20:20 1017 30.03 847 25.01 15.8 60.5 34 0.1 32.2
20:25 1018 30.06 847 25.01 15.7 60.2 35 0.2 32.4
20:30 1018 30.06 847 25.01 15.5 59.9 36 0.4 32.8
20:35 1018 30.06 847 25.01 15.5 59.9 33 -0.5 31
20:40 1018 30.06 847 25.01 15.8 60.5 32 -0.9 30.4
20:45 1018 30.06 847 25.01 16.1 61 30 -1.3 29.6
20:50 1018 30.06 847 25.01 16.4 61.6 29 -1.4 29.4
20:55 1018 30.06 847 25.01 16.7 62.1 29 -1.5 29.3
21:00 1018 30.06 847 25.01 16.9 62.3 28 -1.6 29.1
21:05 1018 30.06 847 25.01 16.8 62.2 28 -1.7 28.9
21:10 1018 30.06 847 25.01 17 62.5 27 -2 28.4
21:15 1018 30.06 847 25.01 17.1 62.8 26 -2.2 28
21:20 1018 30.06 847 25.01 17.4 63.3 25 -2.6 27.3
21:25 1018 30.06 847 25.01 18 64.3 24 -2.9 26.7
21:30 1018 30.06 847 25.01 18.3 64.9 23 -2.8 26.9
21:35 1018 30.06 847 25.01 18.5 65.2 23 -2.9 26.8
21:40 1018 30.06 847 25.01 18.5 65.3 23 -3.1 26.4
21:45 1018 30.06 847 25.01 18.5 65.3 23 -3 26.6
21:50 1018 30.06 847 25.01 18.5 65.3 23 -3.1 26.4
21:55 1018 30.06 847 25.01 18.5 65.3 23 -2.9 26.7
22:00 1018 30.06 847 25.01 18.2 64.8 24 -2.8 26.9
22:05 1018 30.06 847 25.01 18 64.5 23 -3.2 26.3
22:10 1018 30.06 847 25.01 18 64.5 23 -3 26.5
22:15 1018 30.06 847 25.01 17.9 64.3 23 -3.1 26.5
22:20 1018 30.06 847 25.01 18 64.4 24 -2.9 26.7
22:25 1018 30.06 847 25.01 17.9 64.2 24 -3 26.7
22:30 1018 30.06 847 25.01 17.8 64.1 24 -2.8 26.9
22:35 1018 30.06 847 25.01 17.7 63.8 25 -2.5 27.5
22:40 1018 30.06 847 25.01 17.3 63.2 27 -1.9 28.6
22:45 1018 30.06 847 25.01 16.3 61.4 28 -1.9 28.6
22:50 1018 30.06 847 25.01 16.5 61.7 27 -2.7 27.2
22:55 1018 30.06 847 25.01 16.6 61.9 29 -1.2 29.8
23:00 1018 30.06 847 25.01 15.9 60.6 30 -1.5 29.2
23:05 1018 30.06 847 25.01 15.4 59.7 33 -0.7 30.8
23:10 1018 30.06 847 25.01 14.5 58.1 35 -0.5 31.1
23:15 1018 30.06 847 25.01 14.1 57.4 36 -0.5 31
23:20 1018 30.06 847 25.01 13.8 56.8 35 -1.3 29.6
23:25 1018 30.06 847 25.01 14.2 57.6 34 -1.4 29.5
23:30 1018 30.06 847 25.01 14.2 57.6 38 0 32
23:35 1018 30.06 847 25.01 13.6 56.5 38 -0.5 31.1
23:40 1018 30.06 847 25.01 13.3 55.9 37 -1 30.2
23:45 1018 30.06 847 25.01 13.3 56 41 0.5 32.9
23:50 1018 30.06 847 25.01 13 55.4 40 -0.3 31.4
23:55 1018 30.06 847 25.01 13.1 55.5 39 -0.6 30.9
24:00 1018 30.06 847 25.01 13.1 55.6 38 -0.9 30.4